createdAt,value
2022-08-26T00:01:29.672Z,74.30
2022-08-26T00:04:34.153Z,74.30
2022-08-26T00:07:37.661Z,74.10
2022-08-26T00:10:43.648Z,74.10
2022-08-26T00:13:47.910Z,74.20
2022-08-26T00:16:53.277Z,74.00
2022-08-26T00:19:58.439Z,74.00
2022-08-26T00:23:02.711Z,74.00
2022-08-26T00:26:08.433Z,74.00
2022-08-26T00:29:14.834Z,74.10
2022-08-26T00:32:18.232Z,74.40
2022-08-26T00:35:22.122Z,74.50
2022-08-26T00:38:26.535Z,74.60
2022-08-26T00:41:31.553Z,74.90
2022-08-26T00:44:34.887Z,74.70
2022-08-26T00:47:45.822Z,74.70
2022-08-26T00:50:57.600Z,74.90
2022-08-26T00:54:05.432Z,75.00
2022-08-26T00:57:16.326Z,75.30
2022-08-26T01:00:26.299Z,74.70
2022-08-26T01:03:32.953Z,75.00
2022-08-26T01:06:36.614Z,74.80
2022-08-26T01:09:39.960Z,74.80
2022-08-26T01:12:51.015Z,74.90
2022-08-26T01:16:01.715Z,75.20
2022-08-26T01:19:16.990Z,75.20
2022-08-26T01:22:28.265Z,75.40
2022-08-26T01:25:39.081Z,75.30
2022-08-26T01:28:43.637Z,76.10
2022-08-26T01:31:56.608Z,73.80
2022-08-26T01:35:00.054Z,75.60
2022-08-26T01:38:03.505Z,75.30
2022-08-26T01:41:16.015Z,75.30
2022-08-26T01:44:27.894Z,75.60
2022-08-26T01:47:36.094Z,75.60
2022-08-26T01:50:42.031Z,75.40
2022-08-26T01:53:47.453Z,75.60
2022-08-26T01:56:54.391Z,75.60
2022-08-26T02:00:02.569Z,75.80
2022-08-26T02:03:18.086Z,75.70
2022-08-26T02:06:22.095Z,75.90
2022-08-26T02:09:26.006Z,75.90
2022-08-26T02:12:32.751Z,76.00
2022-08-26T02:15:37.839Z,75.90
2022-08-26T02:18:44.942Z,76.10
2022-08-26T02:21:52.954Z,76.30
2022-08-26T02:25:00.350Z,76.20
2022-08-26T02:28:05.222Z,76.40
2022-08-26T02:31:09.069Z,76.50
2022-08-26T02:34:16.406Z,76.50
2022-08-26T02:37:19.919Z,76.30
2022-08-26T02:40:31.477Z,76.20
2022-08-26T02:43:36.586Z,76.40
2022-08-26T02:46:40.775Z,76.40
2022-08-26T02:49:45.045Z,76.00
2022-08-26T02:52:51.565Z,76.30
2022-08-26T02:55:54.662Z,76.30
2022-08-26T02:58:59.306Z,76.20
2022-08-26T03:02:03.036Z,76.10
2022-08-26T03:05:07.711Z,76.20
2022-08-26T03:08:11.757Z,76.20
2022-08-26T03:11:15.677Z,76.30
2022-08-26T03:14:20.864Z,76.40
2022-08-26T03:17:24.584Z,76.00
2022-08-26T03:20:30.298Z,76.90
2022-08-26T03:23:34.999Z,76.70
2022-08-26T03:26:38.359Z,76.70
2022-08-26T03:30:01.321Z,76.50
2022-08-26T03:33:05.361Z,76.90
2022-08-26T03:36:09.098Z,77.00
2022-08-26T03:39:14.020Z,76.50
2022-08-26T03:42:17.308Z,76.30
2022-08-26T03:45:26.052Z,77.30
2022-08-26T03:48:29.649Z,77.70
2022-08-26T03:51:34.760Z,76.50
2022-08-26T03:54:43.984Z,76.70
2022-08-26T03:57:47.420Z,76.40
2022-08-26T04:00:55.563Z,77.10
2022-08-26T04:04:00.830Z,77.40
2022-08-26T04:07:04.410Z,76.50
2022-08-26T04:10:10.776Z,76.50
2022-08-26T04:13:14.061Z,76.40
2022-08-26T04:16:20.958Z,76.40
2022-08-26T04:19:26.492Z,77.70
2022-08-26T04:22:29.888Z,76.60
2022-08-26T04:25:33.089Z,76.90
2022-08-26T04:28:36.924Z,76.50
2022-08-26T04:31:41.598Z,76.40
2022-08-26T04:34:45.292Z,76.60
2022-08-26T04:37:49.345Z,76.70
2022-08-26T04:40:52.616Z,76.70
2022-08-26T04:43:57.024Z,77.00
2022-08-26T04:47:02.954Z,76.80
2022-08-26T04:50:08.495Z,76.80
2022-08-26T04:53:14.903Z,76.90
2022-08-26T04:56:18.287Z,76.60
2022-08-26T04:59:21.644Z,77.90
2022-08-26T05:02:26.361Z,76.80
2022-08-26T05:05:30.366Z,76.50
2022-08-26T05:08:33.667Z,76.70
2022-08-26T05:11:38.430Z,76.60
2022-08-26T05:14:42.212Z,76.70
2022-08-26T05:17:50.316Z,76.90
2022-08-26T05:20:55.899Z,76.70
2022-08-26T05:23:59.194Z,77.00
2022-08-26T05:27:03.530Z,77.00
2022-08-26T05:30:15.703Z,76.80
2022-08-26T05:33:21.340Z,76.70
2022-08-26T05:36:29.408Z,77.50
2022-08-26T05:39:33.930Z,75.70
2022-08-26T05:42:37.483Z,75.30
2022-08-26T05:45:46.081Z,75.20
2022-08-26T05:48:51.624Z,74.20
2022-08-26T05:51:55.661Z,72.80
2022-08-26T05:54:59.037Z,72.10
2022-08-26T05:58:02.721Z,71.70
2022-08-26T06:01:08.149Z,71.20
2022-08-26T06:04:15.159Z,70.60
2022-08-26T06:07:38.461Z,69.90
2022-08-26T06:10:48.118Z,69.10
2022-08-26T06:13:51.962Z,68.10
2022-08-26T06:16:55.200Z,67.60
2022-08-26T06:20:00.517Z,67.60
2022-08-26T06:23:23.198Z,66.60
2022-08-26T06:26:26.587Z,66.20
2022-08-26T06:29:33.228Z,65.40
2022-08-26T06:32:36.926Z,65.10
2022-08-26T06:35:43.597Z,64.60
2022-08-26T06:38:48.047Z,64.00
2022-08-26T06:41:51.951Z,64.00
2022-08-26T06:44:55.373Z,63.30
2022-08-26T06:47:59.178Z,62.60
2022-08-26T06:51:09.914Z,62.50
2022-08-26T06:54:13.319Z,62.50
2022-08-26T06:57:16.781Z,62.10
2022-08-26T07:00:21.199Z,61.10
2022-08-26T07:03:24.460Z,60.80
2022-08-26T07:06:29.674Z,60.70
2022-08-26T07:09:35.197Z,60.10
2022-08-26T07:12:40.377Z,60.00
2022-08-26T07:15:44.586Z,59.50
2022-08-26T07:18:49.791Z,58.80
2022-08-26T07:21:54.562Z,59.30
2022-08-26T07:24:58.802Z,58.50
2022-08-26T07:28:02.839Z,58.10
2022-08-26T07:31:09.518Z,58.30
2022-08-26T07:34:14.333Z,58.70
2022-08-26T07:37:19.602Z,57.90
2022-08-26T07:40:23.819Z,58.30
2022-08-26T07:43:27.050Z,58.70
2022-08-26T07:46:32.537Z,59.30
2022-08-26T07:49:36.756Z,59.60
2022-08-26T07:52:42.318Z,59.70
2022-08-26T07:55:45.454Z,60.20
2022-08-26T07:58:51.755Z,60.60
2022-08-26T08:01:57.427Z,60.80
2022-08-26T08:05:00.786Z,61.20
2022-08-26T08:08:27.019Z,62.00
2022-08-26T08:11:33.460Z,61.50
2022-08-26T08:14:37.323Z,62.40
2022-08-26T08:17:42.351Z,62.40
2022-08-26T08:21:04.601Z,62.40
2022-08-26T08:24:11.963Z,61.70
2022-08-26T08:27:15.891Z,61.80
2022-08-26T08:30:23.202Z,61.80
2022-08-26T08:33:27.120Z,61.30
2022-08-26T08:36:35.993Z,61.60
2022-08-26T08:39:41.888Z,61.30
2022-08-26T08:42:55.715Z,61.20
2022-08-26T08:46:04.809Z,61.60
2022-08-26T08:49:08.228Z,61.40
2022-08-26T08:52:27.030Z,60.00
2022-08-26T08:55:45.276Z,59.90
2022-08-26T08:58:58.142Z,60.20
2022-08-26T09:02:12.204Z,60.50
2022-08-26T09:05:23.491Z,60.40
2022-08-26T09:08:36.819Z,60.00
2022-08-26T09:11:41.476Z,59.70
2022-08-26T09:14:46.116Z,60.30
2022-08-26T09:18:02.042Z,60.60
2022-08-26T09:21:12.596Z,60.70
2022-08-26T09:24:15.806Z,59.80
2022-08-26T09:27:45.898Z,59.70
2022-08-26T09:31:07.979Z,59.80
2022-08-26T09:34:17.964Z,59.70
2022-08-26T09:37:41.522Z,59.50
2022-08-26T09:40:59.303Z,57.80
2022-08-26T09:44:20.749Z,58.10
2022-08-26T09:47:31.760Z,56.70
2022-08-26T09:50:38.680Z,58.30
2022-08-26T09:53:58.762Z,58.00
2022-08-26T09:57:20.133Z,57.40
2022-08-26T10:00:33.771Z,57.00
2022-08-26T10:03:41.325Z,58.00
2022-08-26T10:06:57.455Z,58.20
2022-08-26T10:10:03.899Z,58.70
2022-08-26T10:13:11.665Z,57.20
2022-08-26T10:16:24.174Z,58.40
2022-08-26T10:19:55.795Z,58.30
2022-08-26T10:23:05.397Z,58.50
2022-08-26T10:26:16.561Z,58.20
2022-08-26T10:29:28.987Z,58.20
2022-08-26T10:32:41.500Z,58.20
2022-08-26T10:35:54.660Z,58.10
2022-08-26T10:39:00.905Z,57.80
2022-08-26T10:42:10.941Z,57.80
2022-08-26T10:45:19.758Z,57.30
2022-08-26T10:48:35.479Z,58.20
2022-08-26T10:51:53.457Z,58.10
2022-08-26T10:55:08.470Z,58.00
2022-08-26T10:58:32.852Z,58.30
2022-08-26T11:01:47.007Z,56.80
2022-08-26T11:04:59.358Z,58.50
2022-08-26T11:08:31.998Z,58.40
2022-08-26T11:11:53.012Z,58.10
2022-08-26T11:14:59.169Z,57.60
2022-08-26T11:18:05.046Z,58.90
2022-08-26T11:22:06.098Z,57.70
2022-08-26T11:25:18.901Z,58.50
2022-08-26T11:28:35.574Z,58.40
2022-08-26T11:31:57.420Z,58.90
2022-08-26T11:35:03.224Z,59.60
2022-08-26T11:38:19.050Z,59.80
2022-08-26T11:41:29.107Z,60.10
2022-08-26T11:44:49.601Z,59.90
2022-08-26T11:47:54.413Z,59.80
2022-08-26T11:51:01.481Z,59.90
2022-08-26T11:54:17.090Z,60.00
2022-08-26T11:57:45.974Z,60.20
2022-08-26T12:00:58.750Z,60.30
2022-08-26T12:04:03.985Z,60.30
2022-08-26T12:07:08.752Z,60.50
2022-08-26T12:10:29.984Z,60.00
2022-08-26T12:13:34.398Z,59.90
2022-08-26T12:16:40.820Z,59.90
2022-08-26T12:19:44.553Z,59.90
2022-08-26T12:22:48.814Z,60.00
2022-08-26T12:26:05.521Z,60.00
2022-08-26T12:29:26.903Z,59.80
2022-08-26T12:32:32.378Z,60.30
2022-08-26T12:35:39.881Z,59.60
2022-08-26T12:38:44.777Z,59.70
2022-08-26T12:41:53.253Z,59.80
2022-08-26T12:45:03.883Z,61.90
2022-08-26T12:48:11.082Z,60.00
2022-08-26T12:51:24.989Z,59.30
2022-08-26T12:54:48.498Z,60.40
2022-08-26T12:58:21.324Z,59.30
2022-08-26T13:01:24.875Z,60.20
2022-08-26T13:04:43.653Z,60.30
2022-08-26T13:08:11.774Z,60.40
2022-08-26T13:11:18.533Z,60.30
2022-08-26T13:14:25.309Z,60.20
2022-08-26T13:17:30.730Z,60.10
2022-08-26T13:20:34.572Z,60.00
2022-08-26T13:23:42.321Z,60.30
2022-08-26T13:26:49.736Z,60.70
2022-08-26T13:29:54.766Z,61.00
2022-08-26T13:33:02.228Z,61.40
2022-08-26T13:36:08.705Z,61.50
2022-08-26T13:39:13.680Z,61.60
2022-08-26T13:42:16.838Z,61.30
2022-08-26T13:45:21.494Z,61.60
2022-08-26T13:48:25.507Z,61.50
2022-08-26T13:51:29.935Z,61.50
2022-08-26T13:54:33.322Z,62.30
2022-08-26T13:57:36.825Z,61.30
2022-08-26T14:00:42.480Z,61.70
2022-08-26T14:03:46.475Z,61.80
2022-08-26T14:06:49.859Z,61.60
2022-08-26T14:09:53.082Z,61.70
2022-08-26T14:12:56.498Z,61.70
2022-08-26T14:16:02.462Z,61.80
2022-08-26T14:19:08.281Z,61.80
2022-08-26T14:22:11.793Z,61.60
2022-08-26T14:25:16.190Z,61.90
2022-08-26T14:28:19.756Z,61.70
2022-08-26T14:31:26.674Z,61.10
2022-08-26T14:34:30.073Z,60.70
2022-08-26T14:37:33.600Z,61.20
2022-08-26T14:40:39.291Z,61.30
2022-08-26T14:43:49.416Z,61.10
2022-08-26T14:46:55.037Z,61.50
2022-08-26T14:49:58.429Z,61.00
2022-08-26T14:53:19.516Z,60.60
2022-08-26T14:56:22.863Z,60.90
2022-08-26T14:59:28.914Z,61.30
2022-08-26T15:02:34.179Z,62.30
2022-08-26T15:05:37.925Z,60.80
2022-08-26T15:08:41.095Z,61.00
2022-08-26T15:11:44.857Z,60.70
2022-08-26T15:14:51.293Z,60.80
2022-08-26T15:17:55.983Z,60.40
2022-08-26T15:20:59.370Z,60.40
2022-08-26T15:24:04.035Z,60.40
2022-08-26T15:27:09.143Z,60.20
2022-08-26T15:30:14.204Z,60.20
2022-08-26T15:33:19.259Z,60.00
2022-08-26T15:36:22.546Z,60.90
2022-08-26T15:39:25.918Z,60.80
2022-08-26T15:42:30.163Z,61.90
2022-08-26T15:45:34.591Z,60.80
2022-08-26T15:48:39.688Z,60.70
2022-08-26T15:51:45.925Z,60.40
2022-08-26T15:54:50.021Z,60.90
2022-08-26T15:57:53.712Z,60.90
2022-08-26T16:00:58.381Z,60.20
2022-08-26T16:04:03.935Z,60.70
2022-08-26T16:07:07.447Z,60.90
2022-08-26T16:10:11.595Z,61.00
2022-08-26T16:13:15.206Z,61.40
2022-08-26T16:16:19.504Z,61.70
2022-08-26T16:19:25.086Z,61.90
2022-08-26T16:22:28.680Z,62.10
2022-08-26T16:25:33.632Z,62.80
2022-08-26T16:28:36.990Z,62.40
2022-08-26T16:31:42.295Z,62.30
2022-08-26T16:34:56.586Z,62.50
2022-08-26T16:38:00.373Z,62.80
2022-08-26T16:41:04.261Z,62.80
2022-08-26T16:44:08.745Z,62.90
2022-08-26T16:47:13.280Z,63.20
2022-08-26T16:50:19.329Z,63.20
2022-08-26T16:53:22.719Z,64.00
2022-08-26T16:56:34.057Z,62.90
2022-08-26T16:59:37.849Z,63.10
2022-08-26T17:02:41.447Z,63.30
2022-08-26T17:05:46.076Z,63.30
2022-08-26T17:08:49.249Z,63.50
2022-08-26T17:11:52.837Z,63.60
2022-08-26T17:14:56.419Z,63.70
2022-08-26T17:17:59.747Z,64.20
2022-08-26T17:21:07.418Z,64.30
2022-08-26T17:24:10.547Z,64.90
2022-08-26T17:27:14.614Z,66.00
2022-08-26T17:30:18.319Z,64.80
2022-08-26T17:33:24.501Z,65.00
2022-08-26T17:36:29.624Z,64.20
2022-08-26T17:39:32.982Z,63.90
2022-08-26T17:42:37.763Z,64.00
2022-08-26T17:45:42.054Z,63.70
2022-08-26T17:48:47.225Z,63.40
2022-08-26T17:51:52.073Z,63.40
2022-08-26T17:54:56.736Z,63.70
2022-08-26T17:58:00.337Z,63.80
2022-08-26T18:01:08.395Z,64.00
2022-08-26T18:04:11.860Z,63.90
2022-08-26T18:07:17.767Z,63.20
2022-08-26T18:10:25.385Z,63.60
2022-08-26T18:13:28.613Z,62.60
2022-08-26T18:16:38.111Z,62.70
2022-08-26T18:22:48.459Z,62.70
2022-08-26T18:25:52.691Z,62.80
2022-08-26T18:28:56.446Z,63.10
2022-08-26T18:31:59.741Z,63.60
2022-08-26T18:35:03.329Z,63.90
2022-08-26T18:38:11.219Z,65.10
2022-08-26T18:41:15.063Z,64.80
2022-08-26T18:44:21.726Z,64.60
2022-08-26T18:47:24.934Z,65.20
2022-08-26T18:50:28.445Z,65.40
2022-08-26T18:53:33.204Z,65.50
2022-08-26T18:56:39.733Z,65.80
2022-08-26T18:59:43.126Z,66.10
2022-08-26T19:02:51.847Z,66.20
2022-08-26T19:05:55.721Z,67.00
2022-08-26T19:09:00.985Z,66.80
2022-08-26T19:12:05.400Z,67.10
2022-08-26T19:15:09.563Z,67.00
2022-08-26T19:18:15.620Z,67.30
2022-08-26T19:21:20.017Z,67.40
2022-08-26T19:24:28.111Z,67.50
2022-08-26T19:27:33.489Z,67.20
2022-08-26T19:30:39.966Z,67.50
2022-08-26T19:33:45.398Z,67.70
2022-08-26T19:36:48.879Z,67.70
2022-08-26T19:39:53.538Z,67.70
2022-08-26T19:42:57.234Z,67.60
2022-08-26T19:46:00.591Z,67.60
2022-08-26T19:49:04.137Z,67.40
2022-08-26T19:52:07.953Z,67.80
2022-08-26T19:55:14.650Z,67.80
2022-08-26T19:58:17.932Z,68.10
2022-08-26T20:01:21.660Z,67.80
2022-08-26T20:04:24.993Z,67.90
2022-08-26T20:07:31.365Z,68.20
2022-08-26T20:10:37.118Z,68.40
2022-08-26T20:13:41.312Z,68.70
2022-08-26T20:16:47.451Z,69.00
2022-08-26T20:20:08.099Z,69.00
2022-08-26T20:23:31.238Z,69.50
2022-08-26T20:26:39.467Z,68.90
2022-08-26T20:29:43.292Z,69.00
2022-08-26T20:32:46.694Z,69.00
2022-08-26T20:35:49.899Z,69.00
2022-08-26T20:38:53.118Z,68.90
2022-08-26T20:41:58.527Z,69.00
2022-08-26T20:45:02.823Z,69.10
2022-08-26T20:48:06.376Z,69.00
2022-08-26T20:51:09.641Z,69.00
2022-08-26T20:54:13.667Z,69.00
2022-08-26T20:57:18.507Z,69.00
2022-08-26T21:00:26.506Z,69.40
2022-08-26T21:03:31.275Z,69.10
2022-08-26T21:06:35.150Z,69.10
2022-08-26T21:09:38.180Z,69.20
2022-08-26T21:12:43.030Z,69.60
2022-08-26T21:15:46.997Z,69.60
2022-08-26T21:18:50.669Z,69.10
2022-08-26T21:24:57.481Z,68.70
2022-08-26T21:28:02.106Z,69.10
2022-08-26T21:31:06.911Z,69.30
2022-08-26T21:34:10.310Z,69.30
2022-08-26T21:37:16.600Z,69.30
2022-08-26T21:40:20.360Z,70.50
2022-08-26T21:43:34.862Z,69.90
2022-08-26T21:46:39.061Z,69.80
2022-08-26T21:49:43.277Z,70.00
2022-08-26T21:52:47.294Z,70.10
2022-08-26T21:55:50.501Z,70.10
2022-08-26T21:58:56.927Z,70.30
2022-08-26T22:02:00.565Z,70.30
2022-08-26T22:05:03.915Z,70.20
2022-08-26T22:08:07.128Z,70.60
2022-08-26T22:11:10.704Z,69.70
2022-08-26T22:14:17.671Z,68.80
2022-08-26T22:17:22.492Z,70.00
2022-08-26T22:20:25.808Z,70.00
2022-08-26T22:23:30.221Z,70.10
2022-08-26T22:26:34.683Z,70.40
2022-08-26T22:29:39.420Z,71.30
2022-08-26T22:32:43.881Z,71.60
2022-08-26T22:35:53.125Z,70.60
2022-08-26T22:38:58.812Z,70.70
2022-08-26T22:42:03.628Z,70.60
2022-08-26T22:45:12.130Z,70.40
2022-08-26T22:48:19.572Z,71.00
2022-08-26T22:51:23.369Z,71.10
2022-08-26T22:54:26.669Z,70.90
2022-08-26T22:57:29.895Z,71.20
2022-08-26T23:00:34.895Z,72.00
2022-08-26T23:03:38.110Z,71.60
2022-08-26T23:06:47.648Z,71.50
2022-08-26T23:09:51.256Z,71.70
2022-08-26T23:12:54.650Z,71.70
2022-08-26T23:16:04.916Z,71.60
2022-08-26T23:19:09.512Z,73.50
2022-08-26T23:22:13.223Z,71.80
2022-08-26T23:25:16.725Z,71.90
2022-08-26T23:28:21.298Z,72.10
2022-08-26T23:31:25.904Z,72.10
2022-08-26T23:34:46.953Z,72.20
2022-08-26T23:37:53.141Z,72.00
2022-08-26T23:40:56.536Z,72.30
2022-08-26T23:44:03.405Z,72.30
2022-08-26T23:47:09.449Z,72.40
2022-08-26T23:50:14.573Z,72.30
2022-08-26T23:53:20.875Z,72.50
2022-08-26T23:56:24.294Z,72.60
2022-08-26T23:59:29.875Z,72.40
